sensor_id;sensor_type;location;lat;lon;timestamp;temperature;humidity
14378;DHT22;7272;53.668;9.578;2022-09-09T00:01:28;16.40;99.90
14378;DHT22;7272;53.668;9.578;2022-09-09T00:04:33;16.50;99.90
14378;DHT22;7272;53.668;9.578;2022-09-09T00:07:41;16.50;99.90
14378;DHT22;7272;53.668;9.578;2022-09-09T00:10:46;16.40;99.90
14378;DHT22;7272;53.668;9.578;2022-09-09T00:13:54;16.40;99.90
14378;DHT22;7272;53.668;9.578;2022-09-09T00:17:01;16.40;99.90
14378;DHT22;7272;53.668;9.578;2022-09-09T00:20:11;16.40;99.90
14378;DHT22;7272;53.668;9.578;2022-09-09T00:23:17;16.30;99.90
14378;DHT22;7272;53.668;9.578;2022-09-09T00:26:29;16.30;99.90
14378;DHT22;7272;53.668;9.578;2022-09-09T00:29:38;16.50;99.90
14378;DHT22;7272;53.668;9.578;2022-09-09T00:32:43;16.40;99.90
14378;DHT22;7272;53.668;9.578;2022-09-09T00:35:48;16.40;99.90
14378;DHT22;7272;53.668;9.578;2022-09-09T00:38:53;16.40;99.90
14378;DHT22;7272;53.668;9.578;2022-09-09T00:42:05;16.40;99.90
14378;DHT22;7272;53.668;9.578;2022-09-09T00:45:32;16.40;99.90
14378;DHT22;7272;53.668;9.578;2022-09-09T00:48:42;16.40;99.90
14378;DHT22;7272;53.668;9.578;2022-09-09T00:51:50;16.40;99.90
14378;DHT22;7272;53.668;9.578;2022-09-09T00:55:05;16.40;99.90
14378;DHT22;7272;53.668;9.578;2022-09-09T00:58:08;16.40;99.90
14378;DHT22;7272;53.668;9.578;2022-09-09T01:01:13;16.40;99.90
14378;DHT22;7272;53.668;9.578;2022-09-09T01:04:18;16.30;99.90
14378;DHT22;7272;53.668;9.578;2022-09-09T01:07:24;16.40;99.90
14378;DHT22;7272;53.668;9.578;2022-09-09T01:10:31;16.40;99.90
14378;DHT22;7272;53.668;9.578;2022-09-09T01:13:38;16.40;99.90
14378;DHT22;7272;53.668;9.578;2022-09-09T01:16:45;16.40;99.90
14378;DHT22;7272;53.668;9.578;2022-09-09T01:19:58;16.50;99.90
14378;DHT22;7272;53.668;9.578;2022-09-09T01:23:21;16.40;99.90
14378;DHT22;7272;53.668;9.578;2022-09-09T01:26:58;16.40;99.90
14378;DHT22;7272;53.668;9.578;2022-09-09T01:30:05;16.40;99.90
14378;DHT22;7272;53.668;9.578;2022-09-09T01:33:13;16.30;99.90
14378;DHT22;7272;53.668;9.578;2022-09-09T01:36:24;16.30;99.90
14378;DHT22;7272;53.668;9.578;2022-09-09T01:39:29;16.30;99.90
14378;DHT22;7272;53.668;9.578;2022-09-09T01:42:38;16.20;99.90
14378;DHT22;7272;53.668;9.578;2022-09-09T01:45:41;16.20;99.90
14378;DHT22;7272;53.668;9.578;2022-09-09T01:48:45;16.10;99.90
14378;DHT22;7272;53.668;9.578;2022-09-09T01:51:50;16.10;99.90
14378;DHT22;7272;53.668;9.578;2022-09-09T01:54:57;16.10;99.90
14378;DHT22;7272;53.668;9.578;2022-09-09T01:58:16;16.00;99.90
14378;DHT22;7272;53.668;9.578;2022-09-09T02:01:35;16.20;99.90
14378;DHT22;7272;53.668;9.578;2022-09-09T02:04:42;16.30;99.90
14378;DHT22;7272;53.668;9.578;2022-09-09T02:07:52;16.20;99.90
14378;DHT22;7272;53.668;9.578;2022-09-09T02:11:10;16.10;99.90
14378;DHT22;7272;53.668;9.578;2022-09-09T02:14:23;16.00;99.90
14378;DHT22;7272;53.668;9.578;2022-09-09T02:17:28;16.00;99.90
14378;DHT22;7272;53.668;9.578;2022-09-09T02:20:47;15.90;99.90
14378;DHT22;7272;53.668;9.578;2022-09-09T02:23:50;15.80;99.90
14378;DHT22;7272;53.668;9.578;2022-09-09T02:26:55;15.80;99.90
14378;DHT22;7272;53.668;9.578;2022-09-09T02:30:01;15.80;99.90
14378;DHT22;7272;53.668;9.578;2022-09-09T02:33:14;15.70;99.90
14378;DHT22;7272;53.668;9.578;2022-09-09T02:36:27;15.70;99.90
14378;DHT22;7272;53.668;9.578;2022-09-09T02:39:30;15.70;99.90
14378;DHT22;7272;53.668;9.578;2022-09-09T02:42:38;15.60;99.90
14378;DHT22;7272;53.668;9.578;2022-09-09T02:45:47;15.60;99.90
14378;DHT22;7272;53.668;9.578;2022-09-09T02:48:55;15.60;99.90
14378;DHT22;7272;53.668;9.578;2022-09-09T02:52:06;15.60;99.90
14378;DHT22;7272;53.668;9.578;2022-09-09T02:55:16;15.60;99.90
14378;DHT22;7272;53.668;9.578;2022-09-09T02:58:21;15.50;99.90
14378;DHT22;7272;53.668;9.578;2022-09-09T03:01:33;15.50;99.90
14378;DHT22;7272;53.668;9.578;2022-09-09T03:04:36;15.50;99.90
14378;DHT22;7272;53.668;9.578;2022-09-09T03:07:39;15.50;99.90
14378;DHT22;7272;53.668;9.578;2022-09-09T03:10:41;15.50;99.90
14378;DHT22;7272;53.668;9.578;2022-09-09T03:13:45;15.40;99.90
14378;DHT22;7272;53.668;9.578;2022-09-09T03:16:49;15.40;99.90
14378;DHT22;7272;53.668;9.578;2022-09-09T03:19:51;15.40;99.90
14378;DHT22;7272;53.668;9.578;2022-09-09T03:22:56;15.40;99.90
14378;DHT22;7272;53.668;9.578;2022-09-09T03:25:58;15.40;99.90
14378;DHT22;7272;53.668;9.578;2022-09-09T03:29:10;15.30;99.90
14378;DHT22;7272;53.668;9.578;2022-09-09T03:32:16;15.30;99.90
14378;DHT22;7272;53.668;9.578;2022-09-09T03:35:19;15.30;99.90
14378;DHT22;7272;53.668;9.578;2022-09-09T03:38:21;15.40;99.90
14378;DHT22;7272;53.668;9.578;2022-09-09T03:41:24;15.40;99.90
14378;DHT22;7272;53.668;9.578;2022-09-09T03:44:26;15.40;99.90
14378;DHT22;7272;53.668;9.578;2022-09-09T03:47:30;15.40;99.90
14378;DHT22;7272;53.668;9.578;2022-09-09T03:50:38;15.40;99.90
14378;DHT22;7272;53.668;9.578;2022-09-09T03:53:40;15.40;99.90
14378;DHT22;7272;53.668;9.578;2022-09-09T03:56:42;15.40;99.90
14378;DHT22;7272;53.668;9.578;2022-09-09T03:59:47;15.40;99.90
14378;DHT22;7272;53.668;9.578;2022-09-09T04:02:51;15.30;99.90
14378;DHT22;7272;53.668;9.578;2022-09-09T04:05:56;15.30;99.90
14378;DHT22;7272;53.668;9.578;2022-09-09T04:09:00;15.30;99.90
14378;DHT22;7272;53.668;9.578;2022-09-09T04:12:05;15.30;99.90
14378;DHT22;7272;53.668;9.578;2022-09-09T04:15:09;15.30;99.90
14378;DHT22;7272;53.668;9.578;2022-09-09T04:18:14;15.20;99.90
14378;DHT22;7272;53.668;9.578;2022-09-09T04:21:16;15.20;99.90
14378;DHT22;7272;53.668;9.578;2022-09-09T04:24:18;15.20;99.90
14378;DHT22;7272;53.668;9.578;2022-09-09T04:27:20;15.20;99.90
14378;DHT22;7272;53.668;9.578;2022-09-09T04:30:22;15.20;99.90
14378;DHT22;7272;53.668;9.578;2022-09-09T04:33:26;15.40;99.90
14378;DHT22;7272;53.668;9.578;2022-09-09T04:36:28;15.40;99.90
14378;DHT22;7272;53.668;9.578;2022-09-09T04:39:34;15.40;99.90
14378;DHT22;7272;53.668;9.578;2022-09-09T04:42:37;15.40;99.90
14378;DHT22;7272;53.668;9.578;2022-09-09T04:45:40;15.30;99.90
14378;DHT22;7272;53.668;9.578;2022-09-09T04:48:43;15.40;99.90
14378;DHT22;7272;53.668;9.578;2022-09-09T04:51:48;15.40;99.90
14378;DHT22;7272;53.668;9.578;2022-09-09T04:54:51;15.40;99.90
14378;DHT22;7272;53.668;9.578;2022-09-09T04:57:54;15.40;99.90
14378;DHT22;7272;53.668;9.578;2022-09-09T05:01:06;15.40;99.90
14378;DHT22;7272;53.668;9.578;2022-09-09T05:04:09;15.40;99.90
14378;DHT22;7272;53.668;9.578;2022-09-09T05:07:12;15.40;99.90
14378;DHT22;7272;53.668;9.578;2022-09-09T05:10:14;15.40;99.90
14378;DHT22;7272;53.668;9.578;2022-09-09T05:13:18;15.30;99.90
14378;DHT22;7272;53.668;9.578;2022-09-09T05:16:20;15.40;99.90
14378;DHT22;7272;53.668;9.578;2022-09-09T05:19:25;15.40;99.90
14378;DHT22;7272;53.668;9.578;2022-09-09T05:22:28;15.40;99.90
14378;DHT22;7272;53.668;9.578;2022-09-09T05:25:31;15.50;99.90
14378;DHT22;7272;53.668;9.578;2022-09-09T05:28:34;15.60;99.90
14378;DHT22;7272;53.668;9.578;2022-09-09T05:31:36;15.60;99.90
14378;DHT22;7272;53.668;9.578;2022-09-09T05:34:45;15.60;99.90
14378;DHT22;7272;53.668;9.578;2022-09-09T05:37:47;15.70;99.90
14378;DHT22;7272;53.668;9.578;2022-09-09T05:40:49;15.70;99.90
14378;DHT22;7272;53.668;9.578;2022-09-09T05:43:52;15.80;99.90
14378;DHT22;7272;53.668;9.578;2022-09-09T05:46:55;16.10;99.90
14378;DHT22;7272;53.668;9.578;2022-09-09T05:50:00;16.30;99.90
14378;DHT22;7272;53.668;9.578;2022-09-09T05:53:02;16.30;99.90
14378;DHT22;7272;53.668;9.578;2022-09-09T05:56:06;16.30;99.90
14378;DHT22;7272;53.668;9.578;2022-09-09T05:59:09;16.30;99.90
14378;DHT22;7272;53.668;9.578;2022-09-09T06:02:13;16.20;99.90
14378;DHT22;7272;53.668;9.578;2022-09-09T06:05:17;16.20;99.90
14378;DHT22;7272;53.668;9.578;2022-09-09T06:08:20;16.10;99.90
14378;DHT22;7272;53.668;9.578;2022-09-09T06:11:23;16.10;99.90
14378;DHT22;7272;53.668;9.578;2022-09-09T06:14:25;16.00;99.90
14378;DHT22;7272;53.668;9.578;2022-09-09T06:17:28;16.20;99.90
14378;DHT22;7272;53.668;9.578;2022-09-09T06:20:32;16.20;99.90
14378;DHT22;7272;53.668;9.578;2022-09-09T06:23:35;16.20;99.90
14378;DHT22;7272;53.668;9.578;2022-09-09T06:26:38;16.20;99.90
14378;DHT22;7272;53.668;9.578;2022-09-09T06:29:41;16.20;99.90
14378;DHT22;7272;53.668;9.578;2022-09-09T06:32:43;16.20;99.90
14378;DHT22;7272;53.668;9.578;2022-09-09T06:35:52;16.30;99.90
14378;DHT22;7272;53.668;9.578;2022-09-09T06:38:55;16.50;99.90
14378;DHT22;7272;53.668;9.578;2022-09-09T06:41:58;16.70;99.90
14378;DHT22;7272;53.668;9.578;2022-09-09T06:45:18;16.60;99.90
14378;DHT22;7272;53.668;9.578;2022-09-09T06:48:27;16.60;99.90
14378;DHT22;7272;53.668;9.578;2022-09-09T06:51:33;16.70;99.90
14378;DHT22;7272;53.668;9.578;2022-09-09T06:54:36;16.70;99.90
14378;DHT22;7272;53.668;9.578;2022-09-09T06:57:39;16.70;99.90
14378;DHT22;7272;53.668;9.578;2022-09-09T07:00:47;16.80;99.90
14378;DHT22;7272;53.668;9.578;2022-09-09T07:03:52;16.80;99.90
14378;DHT22;7272;53.668;9.578;2022-09-09T07:06:57;16.80;99.90
14378;DHT22;7272;53.668;9.578;2022-09-09T07:10:00;16.90;99.90
14378;DHT22;7272;53.668;9.578;2022-09-09T07:13:02;16.90;99.90
14378;DHT22;7272;53.668;9.578;2022-09-09T07:16:06;17.00;99.90
14378;DHT22;7272;53.668;9.578;2022-09-09T07:19:08;17.00;99.90
14378;DHT22;7272;53.668;9.578;2022-09-09T07:22:12;17.10;99.90
14378;DHT22;7272;53.668;9.578;2022-09-09T07:25:15;17.10;99.90
14378;DHT22;7272;53.668;9.578;2022-09-09T07:28:18;17.40;99.90
14378;DHT22;7272;53.668;9.578;2022-09-09T07:31:22;17.60;99.90
14378;DHT22;7272;53.668;9.578;2022-09-09T07:34:25;17.60;99.90
14378;DHT22;7272;53.668;9.578;2022-09-09T07:37:29;17.60;99.90
14378;DHT22;7272;53.668;9.578;2022-09-09T07:40:32;17.70;99.90
14378;DHT22;7272;53.668;9.578;2022-09-09T07:43:34;17.70;99.90
14378;DHT22;7272;53.668;9.578;2022-09-09T07:46:37;17.80;99.90
14378;DHT22;7272;53.668;9.578;2022-09-09T07:49:41;17.80;99.90
14378;DHT22;7272;53.668;9.578;2022-09-09T07:52:45;18.10;99.90
14378;DHT22;7272;53.668;9.578;2022-09-09T07:55:47;18.40;99.90
14378;DHT22;7272;53.668;9.578;2022-09-09T07:58:51;18.40;99.90
14378;DHT22;7272;53.668;9.578;2022-09-09T08:01:53;18.50;99.90
14378;DHT22;7272;53.668;9.578;2022-09-09T08:04:58;18.60;99.90
14378;DHT22;7272;53.668;9.578;2022-09-09T08:08:01;18.70;99.90
14378;DHT22;7272;53.668;9.578;2022-09-09T08:11:06;18.70;99.90
14378;DHT22;7272;53.668;9.578;2022-09-09T08:14:10;18.60;99.90
14378;DHT22;7272;53.668;9.578;2022-09-09T08:17:12;18.60;99.90
14378;DHT22;7272;53.668;9.578;2022-09-09T08:20:15;18.60;99.90
14378;DHT22;7272;53.668;9.578;2022-09-09T08:23:18;18.60;99.90
14378;DHT22;7272;53.668;9.578;2022-09-09T08:26:21;18.60;99.90
14378;DHT22;7272;53.668;9.578;2022-09-09T08:29:24;18.70;99.90
14378;DHT22;7272;53.668;9.578;2022-09-09T08:32:28;18.70;99.90
14378;DHT22;7272;53.668;9.578;2022-09-09T08:35:30;18.70;99.90
14378;DHT22;7272;53.668;9.578;2022-09-09T08:38:35;18.90;99.90
14378;DHT22;7272;53.668;9.578;2022-09-09T08:42:05;19.00;99.90
14378;DHT22;7272;53.668;9.578;2022-09-09T08:45:23;19.00;99.90
14378;DHT22;7272;53.668;9.578;2022-09-09T08:48:43;18.90;99.90
14378;DHT22;7272;53.668;9.578;2022-09-09T08:51:47;18.90;99.90
14378;DHT22;7272;53.668;9.578;2022-09-09T08:54:52;18.90;99.90
14378;DHT22;7272;53.668;9.578;2022-09-09T08:57:58;19.00;99.90
14378;DHT22;7272;53.668;9.578;2022-09-09T09:01:22;19.30;99.90
14378;DHT22;7272;53.668;9.578;2022-09-09T09:04:38;19.40;99.90
14378;DHT22;7272;53.668;9.578;2022-09-09T09:07:59;19.50;99.90
14378;DHT22;7272;53.668;9.578;2022-09-09T09:11:08;19.70;99.90
14378;DHT22;7272;53.668;9.578;2022-09-09T09:14:13;19.90;99.90
14378;DHT22;7272;53.668;9.578;2022-09-09T09:17:18;20.00;99.90
14378;DHT22;7272;53.668;9.578;2022-09-09T09:20:27;20.20;99.90
14378;DHT22;7272;53.668;9.578;2022-09-09T09:23:41;20.40;99.90
14378;DHT22;7272;53.668;9.578;2022-09-09T09:26:46;20.70;99.90
14378;DHT22;7272;53.668;9.578;2022-09-09T09:29:50;20.90;99.90
14378;DHT22;7272;53.668;9.578;2022-09-09T09:32:55;21.20;99.90
14378;DHT22;7272;53.668;9.578;2022-09-09T09:35:57;21.30;99.90
14378;DHT22;7272;53.668;9.578;2022-09-09T09:39:03;21.50;99.90
14378;DHT22;7272;53.668;9.578;2022-09-09T09:42:13;21.80;99.90
14378;DHT22;7272;53.668;9.578;2022-09-09T09:45:26;21.90;99.90
14378;DHT22;7272;53.668;9.578;2022-09-09T09:48:29;22.30;99.90
14378;DHT22;7272;53.668;9.578;2022-09-09T09:51:32;22.50;99.90
14378;DHT22;7272;53.668;9.578;2022-09-09T09:54:38;22.70;99.90
14378;DHT22;7272;53.668;9.578;2022-09-09T09:57:44;22.80;99.90
14378;DHT22;7272;53.668;9.578;2022-09-09T10:00:48;22.90;99.90
14378;DHT22;7272;53.668;9.578;2022-09-09T10:03:53;22.90;99.90
14378;DHT22;7272;53.668;9.578;2022-09-09T10:06:56;22.90;99.90
14378;DHT22;7272;53.668;9.578;2022-09-09T10:09:58;22.80;99.90
14378;DHT22;7272;53.668;9.578;2022-09-09T10:13:06;22.60;99.90
14378;DHT22;7272;53.668;9.578;2022-09-09T10:16:29;22.30;99.90
14378;DHT22;7272;53.668;9.578;2022-09-09T10:19:37;22.00;99.90
14378;DHT22;7272;53.668;9.578;2022-09-09T10:22:43;21.90;99.90
14378;DHT22;7272;53.668;9.578;2022-09-09T10:26:03;22.00;99.90
14378;DHT22;7272;53.668;9.578;2022-09-09T10:29:26;22.30;99.90
14378;DHT22;7272;53.668;9.578;2022-09-09T10:32:38;22.50;99.90
14378;DHT22;7272;53.668;9.578;2022-09-09T10:35:47;22.60;99.90
14378;DHT22;7272;53.668;9.578;2022-09-09T10:38:57;22.90;99.90
14378;DHT22;7272;53.668;9.578;2022-09-09T10:42:05;23.20;99.90
14378;DHT22;7272;53.668;9.578;2022-09-09T10:45:17;23.00;99.90
14378;DHT22;7272;53.668;9.578;2022-09-09T10:48:38;23.00;99.90
14378;DHT22;7272;53.668;9.578;2022-09-09T10:51:53;23.00;99.90
14378;DHT22;7272;53.668;9.578;2022-09-09T10:55:02;23.00;99.90
14378;DHT22;7272;53.668;9.578;2022-09-09T10:58:13;23.20;99.90
14378;DHT22;7272;53.668;9.578;2022-09-09T11:01:20;23.40;99.90
14378;DHT22;7272;53.668;9.578;2022-09-09T11:04:27;23.50;99.90
14378;DHT22;7272;53.668;9.578;2022-09-09T11:07:36;23.40;99.90
14378;DHT22;7272;53.668;9.578;2022-09-09T11:10:44;23.20;99.90
14378;DHT22;7272;53.668;9.578;2022-09-09T11:13:52;23.00;99.90
14378;DHT22;7272;53.668;9.578;2022-09-09T11:17:03;23.10;99.90
14378;DHT22;7272;53.668;9.578;2022-09-09T11:20:06;23.30;99.90
14378;DHT22;7272;53.668;9.578;2022-09-09T11:23:15;23.40;99.90
14378;DHT22;7272;53.668;9.578;2022-09-09T11:26:23;23.30;99.90
14378;DHT22;7272;53.668;9.578;2022-09-09T11:29:42;23.30;99.90
14378;DHT22;7272;53.668;9.578;2022-09-09T11:33:11;23.00;99.90
14378;DHT22;7272;53.668;9.578;2022-09-09T11:36:39;22.80;99.90
14378;DHT22;7272;53.668;9.578;2022-09-09T11:43:21;22.60;99.90
14378;DHT22;7272;53.668;9.578;2022-09-09T11:46:33;22.70;99.90
14378;DHT22;7272;53.668;9.578;2022-09-09T11:49:42;22.70;99.90
14378;DHT22;7272;53.668;9.578;2022-09-09T11:52:46;22.60;99.90
14378;DHT22;7272;53.668;9.578;2022-09-09T11:56:04;22.50;99.90
14378;DHT22;7272;53.668;9.578;2022-09-09T11:59:20;22.50;99.90
14378;DHT22;7272;53.668;9.578;2022-09-09T12:02:24;22.80;99.90
14378;DHT22;7272;53.668;9.578;2022-09-09T12:05:39;23.00;99.90
14378;DHT22;7272;53.668;9.578;2022-09-09T12:08:46;23.00;99.90
14378;DHT22;7272;53.668;9.578;2022-09-09T12:11:50;22.90;99.90
14378;DHT22;7272;53.668;9.578;2022-09-09T12:15:02;23.20;99.90
14378;DHT22;7272;53.668;9.578;2022-09-09T12:18:07;23.40;99.90
14378;DHT22;7272;53.668;9.578;2022-09-09T12:21:21;23.50;99.90
14378;DHT22;7272;53.668;9.578;2022-09-09T12:24:33;23.50;99.90
14378;DHT22;7272;53.668;9.578;2022-09-09T12:27:42;23.30;99.90
14378;DHT22;7272;53.668;9.578;2022-09-09T12:30:52;23.10;99.90
14378;DHT22;7272;53.668;9.578;2022-09-09T12:34:06;22.90;99.90
14378;DHT22;7272;53.668;9.578;2022-09-09T12:37:20;23.00;99.90
14378;DHT22;7272;53.668;9.578;2022-09-09T12:40:27;23.00;99.90
14378;DHT22;7272;53.668;9.578;2022-09-09T12:43:29;23.30;99.90
14378;DHT22;7272;53.668;9.578;2022-09-09T12:46:34;23.30;99.90
14378;DHT22;7272;53.668;9.578;2022-09-09T12:49:38;23.20;99.90
14378;DHT22;7272;53.668;9.578;2022-09-09T12:52:43;23.00;99.90
14378;DHT22;7272;53.668;9.578;2022-09-09T12:55:50;22.90;99.90
14378;DHT22;7272;53.668;9.578;2022-09-09T12:58:54;22.90;99.90
14378;DHT22;7272;53.668;9.578;2022-09-09T13:01:57;23.10;99.90
14378;DHT22;7272;53.668;9.578;2022-09-09T13:05:08;23.00;99.90
14378;DHT22;7272;53.668;9.578;2022-09-09T13:08:17;22.90;99.90
14378;DHT22;7272;53.668;9.578;2022-09-09T13:11:23;22.70;99.90
14378;DHT22;7272;53.668;9.578;2022-09-09T13:14:32;22.40;99.90
14378;DHT22;7272;53.668;9.578;2022-09-09T13:17:35;21.90;99.90
14378;DHT22;7272;53.668;9.578;2022-09-09T13:20:37;21.90;99.90
14378;DHT22;7272;53.668;9.578;2022-09-09T13:23:41;21.70;99.90
14378;DHT22;7272;53.668;9.578;2022-09-09T13:26:43;21.50;99.90
14378;DHT22;7272;53.668;9.578;2022-09-09T13:29:56;21.30;99.90
14378;DHT22;7272;53.668;9.578;2022-09-09T13:33:16;21.20;99.90
14378;DHT22;7272;53.668;9.578;2022-09-09T13:36:28;21.10;99.90
14378;DHT22;7272;53.668;9.578;2022-09-09T13:39:33;21.20;99.90
14378;DHT22;7272;53.668;9.578;2022-09-09T13:42:40;21.10;99.90
14378;DHT22;7272;53.668;9.578;2022-09-09T13:45:52;21.10;99.90
14378;DHT22;7272;53.668;9.578;2022-09-09T13:48:57;21.00;99.90
14378;DHT22;7272;53.668;9.578;2022-09-09T13:52:05;21.00;99.90
14378;DHT22;7272;53.668;9.578;2022-09-09T13:55:09;21.00;99.90
14378;DHT22;7272;53.668;9.578;2022-09-09T13:58:16;21.00;99.90
14378;DHT22;7272;53.668;9.578;2022-09-09T14:01:18;21.00;99.90
14378;DHT22;7272;53.668;9.578;2022-09-09T14:04:20;21.00;99.90
14378;DHT22;7272;53.668;9.578;2022-09-09T14:07:22;21.10;99.90
14378;DHT22;7272;53.668;9.578;2022-09-09T14:10:27;21.10;99.90
14378;DHT22;7272;53.668;9.578;2022-09-09T14:13:29;21.10;99.90
14378;DHT22;7272;53.668;9.578;2022-09-09T14:16:33;21.20;99.90
14378;DHT22;7272;53.668;9.578;2022-09-09T14:19:35;21.20;99.90
14378;DHT22;7272;53.668;9.578;2022-09-09T14:22:38;21.20;99.90
14378;DHT22;7272;53.668;9.578;2022-09-09T14:25:43;21.10;99.90
14378;DHT22;7272;53.668;9.578;2022-09-09T14:28:45;21.10;99.90
14378;DHT22;7272;53.668;9.578;2022-09-09T14:31:48;21.20;99.90
14378;DHT22;7272;53.668;9.578;2022-09-09T14:34:50;21.20;99.90
14378;DHT22;7272;53.668;9.578;2022-09-09T14:37:52;21.30;99.90
14378;DHT22;7272;53.668;9.578;2022-09-09T14:40:55;21.30;99.90
14378;DHT22;7272;53.668;9.578;2022-09-09T14:43:59;21.20;99.90
14378;DHT22;7272;53.668;9.578;2022-09-09T14:47:01;21.10;99.90
14378;DHT22;7272;53.668;9.578;2022-09-09T14:50:04;21.00;99.90
14378;DHT22;7272;53.668;9.578;2022-09-09T14:53:06;21.10;99.90
14378;DHT22;7272;53.668;9.578;2022-09-09T14:56:13;21.10;99.90
14378;DHT22;7272;53.668;9.578;2022-09-09T14:59:15;21.00;99.90
14378;DHT22;7272;53.668;9.578;2022-09-09T15:02:17;20.90;99.90
14378;DHT22;7272;53.668;9.578;2022-09-09T15:05:19;20.80;99.90
14378;DHT22;7272;53.668;9.578;2022-09-09T15:08:21;20.80;99.90
14378;DHT22;7272;53.668;9.578;2022-09-09T15:11:25;20.80;99.90
14378;DHT22;7272;53.668;9.578;2022-09-09T15:14:28;20.80;99.90
14378;DHT22;7272;53.668;9.578;2022-09-09T15:17:31;20.70;99.90
14378;DHT22;7272;53.668;9.578;2022-09-09T15:20:34;20.70;99.90
14378;DHT22;7272;53.668;9.578;2022-09-09T15:23:38;20.70;99.90
14378;DHT22;7272;53.668;9.578;2022-09-09T15:26:42;20.70;99.90
14378;DHT22;7272;53.668;9.578;2022-09-09T15:29:44;20.70;99.90
14378;DHT22;7272;53.668;9.578;2022-09-09T15:32:47;20.70;99.90
14378;DHT22;7272;53.668;9.578;2022-09-09T15:35:49;20.90;99.90
14378;DHT22;7272;53.668;9.578;2022-09-09T15:38:52;20.90;99.90
14378;DHT22;7272;53.668;9.578;2022-09-09T15:41:56;20.90;99.90
14378;DHT22;7272;53.668;9.578;2022-09-09T15:44:58;20.90;99.90
14378;DHT22;7272;53.668;9.578;2022-09-09T15:48:01;20.90;99.90
14378;DHT22;7272;53.668;9.578;2022-09-09T15:51:04;20.80;99.90
14378;DHT22;7272;53.668;9.578;2022-09-09T15:54:06;20.70;99.90
14378;DHT22;7272;53.668;9.578;2022-09-09T15:57:12;20.70;99.90
14378;DHT22;7272;53.668;9.578;2022-09-09T16:00:15;20.70;99.90
14378;DHT22;7272;53.668;9.578;2022-09-09T16:03:17;20.50;99.90
14378;DHT22;7272;53.668;9.578;2022-09-09T16:06:21;20.50;99.90
14378;DHT22;7272;53.668;9.578;2022-09-09T16:09:24;20.40;99.90
14378;DHT22;7272;53.668;9.578;2022-09-09T16:12:27;20.40;99.90
14378;DHT22;7272;53.668;9.578;2022-09-09T16:15:29;20.30;99.90
14378;DHT22;7272;53.668;9.578;2022-09-09T16:18:35;20.30;99.90
14378;DHT22;7272;53.668;9.578;2022-09-09T16:21:38;20.30;99.90
14378;DHT22;7272;53.668;9.578;2022-09-09T16:24:41;20.30;99.90
14378;DHT22;7272;53.668;9.578;2022-09-09T16:27:46;20.20;99.90
14378;DHT22;7272;53.668;9.578;2022-09-09T16:30:48;20.20;99.90
14378;DHT22;7272;53.668;9.578;2022-09-09T16:33:50;20.20;99.90
14378;DHT22;7272;53.668;9.578;2022-09-09T16:36:52;20.10;99.90
14378;DHT22;7272;53.668;9.578;2022-09-09T16:39:54;20.00;99.90
14378;DHT22;7272;53.668;9.578;2022-09-09T16:42:58;19.90;99.90
14378;DHT22;7272;53.668;9.578;2022-09-09T16:46:00;19.80;99.90
14378;DHT22;7272;53.668;9.578;2022-09-09T16:49:05;19.70;99.90
14378;DHT22;7272;53.668;9.578;2022-09-09T16:52:07;19.80;99.90
14378;DHT22;7272;53.668;9.578;2022-09-09T16:55:09;19.90;99.90
14378;DHT22;7272;53.668;9.578;2022-09-09T16:58:12;19.80;99.90
14378;DHT22;7272;53.668;9.578;2022-09-09T17:01:14;19.70;99.90
14378;DHT22;7272;53.668;9.578;2022-09-09T17:04:17;19.60;99.90
14378;DHT22;7272;53.668;9.578;2022-09-09T17:07:21;19.60;99.90
14378;DHT22;7272;53.668;9.578;2022-09-09T17:10:23;19.50;99.90
14378;DHT22;7272;53.668;9.578;2022-09-09T17:13:27;19.40;99.90
14378;DHT22;7272;53.668;9.578;2022-09-09T17:16:31;19.40;99.90
14378;DHT22;7272;53.668;9.578;2022-09-09T17:19:34;19.30;99.90
14378;DHT22;7272;53.668;9.578;2022-09-09T17:22:36;19.30;99.90
14378;DHT22;7272;53.668;9.578;2022-09-09T17:25:39;19.20;99.90
14378;DHT22;7272;53.668;9.578;2022-09-09T17:28:43;19.10;99.90
14378;DHT22;7272;53.668;9.578;2022-09-09T17:31:46;19.10;99.90
14378;DHT22;7272;53.668;9.578;2022-09-09T17:34:48;19.00;99.90
14378;DHT22;7272;53.668;9.578;2022-09-09T17:37:50;18.90;99.90
14378;DHT22;7272;53.668;9.578;2022-09-09T17:41:01;18.90;99.90
14378;DHT22;7272;53.668;9.578;2022-09-09T17:44:04;18.80;99.90
14378;DHT22;7272;53.668;9.578;2022-09-09T17:47:07;18.80;99.90
14378;DHT22;7272;53.668;9.578;2022-09-09T17:50:09;18.70;99.90
14378;DHT22;7272;53.668;9.578;2022-09-09T17:53:11;18.70;99.90
14378;DHT22;7272;53.668;9.578;2022-09-09T17:56:15;18.60;99.90
14378;DHT22;7272;53.668;9.578;2022-09-09T17:59:19;18.60;99.90
14378;DHT22;7272;53.668;9.578;2022-09-09T18:02:20;18.50;99.90
14378;DHT22;7272;53.668;9.578;2022-09-09T18:05:22;18.40;99.90
14378;DHT22;7272;53.668;9.578;2022-09-09T18:08:24;18.30;99.90
14378;DHT22;7272;53.668;9.578;2022-09-09T18:11:28;18.30;99.90
14378;DHT22;7272;53.668;9.578;2022-09-09T18:14:33;18.40;99.90
14378;DHT22;7272;53.668;9.578;2022-09-09T18:17:35;18.30;99.90
14378;DHT22;7272;53.668;9.578;2022-09-09T18:20:36;18.20;99.90
14378;DHT22;7272;53.668;9.578;2022-09-09T18:23:40;18.10;99.90
14378;DHT22;7272;53.668;9.578;2022-09-09T18:26:44;18.00;99.90
14378;DHT22;7272;53.668;9.578;2022-09-09T18:29:48;18.10;99.90
14378;DHT22;7272;53.668;9.578;2022-09-09T18:32:50;18.20;99.90
14378;DHT22;7272;53.668;9.578;2022-09-09T18:35:52;18.00;99.90
14378;DHT22;7272;53.668;9.578;2022-09-09T18:38:57;17.90;99.90
14378;DHT22;7272;53.668;9.578;2022-09-09T18:42:00;17.80;99.90
14378;DHT22;7272;53.668;9.578;2022-09-09T18:45:04;17.70;99.90
14378;DHT22;7272;53.668;9.578;2022-09-09T18:48:06;17.60;99.90
14378;DHT22;7272;53.668;9.578;2022-09-09T18:51:09;17.60;99.90
14378;DHT22;7272;53.668;9.578;2022-09-09T18:54:12;17.60;99.90
14378;DHT22;7272;53.668;9.578;2022-09-09T18:57:15;17.50;99.90
14378;DHT22;7272;53.668;9.578;2022-09-09T19:00:19;17.50;99.90
14378;DHT22;7272;53.668;9.578;2022-09-09T19:03:21;17.50;99.90
14378;DHT22;7272;53.668;9.578;2022-09-09T19:06:25;17.40;99.90
14378;DHT22;7272;53.668;9.578;2022-09-09T19:09:29;17.60;99.90
14378;DHT22;7272;53.668;9.578;2022-09-09T19:12:32;17.60;99.90
14378;DHT22;7272;53.668;9.578;2022-09-09T19:15:36;17.50;99.90
14378;DHT22;7272;53.668;9.578;2022-09-09T19:18:40;17.50;99.90
14378;DHT22;7272;53.668;9.578;2022-09-09T19:21:44;17.40;99.90
14378;DHT22;7272;53.668;9.578;2022-09-09T19:24:46;17.30;99.90
14378;DHT22;7272;53.668;9.578;2022-09-09T19:27:48;17.30;99.90
14378;DHT22;7272;53.668;9.578;2022-09-09T19:30:52;17.30;99.90
14378;DHT22;7272;53.668;9.578;2022-09-09T19:33:56;17.30;99.90
14378;DHT22;7272;53.668;9.578;2022-09-09T19:36:58;17.20;99.90
14378;DHT22;7272;53.668;9.578;2022-09-09T19:40:00;17.20;99.90
14378;DHT22;7272;53.668;9.578;2022-09-09T19:43:02;17.20;99.90
14378;DHT22;7272;53.668;9.578;2022-09-09T19:46:07;17.10;99.90
14378;DHT22;7272;53.668;9.578;2022-09-09T19:49:09;17.20;99.90
14378;DHT22;7272;53.668;9.578;2022-09-09T19:52:11;17.30;99.90
14378;DHT22;7272;53.668;9.578;2022-09-09T19:55:13;17.30;99.90